Hauptseite
METAR-TAF:

METAR-TAF

Flughäfen :

Gaithersburg, Maryland, Vereinigte Staaten

Breite: 39-10-06N, Länge: 077-09-58W, Höhe: 164 m

Beobachtung

Neuester Wetterbericht von vor 44 Minuten, um 12:56 UTC
Wind 5 kt aus Nordost
Temperatur 1°C
Luftfeuchtigkeit 47%
Luftdruck 1025 hPa
Sichtweite: 16.1 km
Geschlossene Wolkendecke in der Höhe von 2900 ft

METAR: KGAI 171256Z AUTO 04005KT 10SM OVC029 01/M09 A3028 RMK AO2 SLP273 T00111089 FZRANO

Zeit: 08:40 (13:40 UTC)


TAF: fehlend

Wetterbeobachtungen und Prognosen von mehr als 4000 Flughäfen (METAR und TAF Bericht).

Die verfügbaren Stationen werden durch gelbe und rote Markierungen auf der Karte dargestellt.

Führen Sie die Maus auf sie, um den Namen der Station zu sehen.

Darauf klicken, um die Beobachtung von Wetterbeobachtungen und Prognosen zu sehen.

Um die Karte zu ändern : klicken Sie auf den grünen Tasten mit einem schwarzen Kreuz Zum Vergrößern, auf den grünen Button mit einem Gedankenstrich zu verkleinern, oder auf die grünen Pfeile für benachbarte Karten.


METAR-TAF: